createdAt,value
2018-07-21T00:02:02.036Z,21.20
2018-07-21T00:04:29.852Z,21.20
2018-07-21T00:06:57.723Z,21.10
2018-07-21T00:09:25.557Z,21.10
2018-07-21T00:11:53.348Z,21.10
2018-07-21T00:14:21.164Z,21.10
2018-07-21T00:19:16.743Z,21.00
2018-07-21T00:21:44.624Z,20.90
2018-07-21T00:24:12.475Z,20.90
2018-07-21T00:26:46.047Z,20.80
2018-07-21T00:29:13.809Z,20.70
2018-07-21T00:31:41.870Z,20.60
2018-07-21T00:34:09.654Z,20.50
2018-07-21T00:39:08.731Z,20.50
2018-07-21T00:41:36.539Z,20.40
2018-07-21T00:44:04.547Z,20.40
2018-07-21T00:46:32.367Z,20.40
2018-07-21T00:49:00.251Z,20.30
2018-07-21T00:51:28.012Z,20.20
2018-07-21T00:53:55.815Z,20.10
2018-07-21T00:58:51.387Z,20.00
2018-07-21T01:01:19.162Z,19.90
2018-07-21T01:03:47.001Z,19.90
2018-07-21T01:06:14.821Z,20.00
2018-07-21T01:08:42.548Z,19.90
2018-07-21T01:11:10.393Z,20.00
2018-07-21T01:13:38.244Z,19.90
2018-07-21T01:16:06.368Z,19.80
2018-07-21T01:18:34.260Z,19.70
2018-07-21T01:21:01.996Z,19.60
2018-07-21T01:23:29.823Z,19.60
2018-07-21T01:25:57.680Z,19.60
2018-07-21T01:28:25.508Z,19.60
2018-07-21T01:30:53.396Z,19.50
2018-07-21T01:33:21.150Z,19.60
2018-07-21T01:35:48.919Z,19.60
2018-07-21T01:38:16.707Z,19.40
2018-07-21T01:40:44.501Z,19.50
2018-07-21T01:43:12.348Z,19.60
2018-07-21T01:45:40.052Z,19.60
2018-07-21T01:48:07.933Z,19.60
2018-07-21T01:50:35.639Z,19.50
2018-07-21T01:53:03.487Z,19.30
2018-07-21T01:55:31.345Z,19.30
2018-07-21T01:57:59.161Z,19.20
2018-07-21T02:00:26.995Z,19.10
2018-07-21T02:02:54.871Z,19.10
2018-07-21T02:05:22.630Z,19.00
2018-07-21T02:07:50.476Z,19.00
2018-07-21T02:10:18.243Z,18.90
2018-07-21T02:12:46.117Z,19.00
2018-07-21T02:15:13.971Z,18.90
2018-07-21T02:17:41.783Z,18.80
2018-07-21T02:20:09.969Z,18.80
2018-07-21T02:22:37.850Z,18.80
2018-07-21T02:25:06.003Z,18.80
2018-07-21T02:27:33.843Z,18.80
2018-07-21T02:30:01.728Z,18.80
2018-07-21T02:32:29.568Z,18.80
2018-07-21T02:34:57.404Z,18.80
2018-07-21T02:37:25.239Z,18.80
2018-07-21T02:39:52.976Z,18.70
2018-07-21T02:42:20.846Z,18.80
2018-07-21T02:44:48.729Z,18.80
2018-07-21T02:47:16.625Z,18.80
2018-07-21T02:49:44.418Z,18.70
2018-07-21T02:52:12.223Z,18.70
2018-07-21T02:54:40.134Z,18.70
2018-07-21T02:57:07.908Z,18.60
2018-07-21T02:59:35.765Z,18.60
2018-07-21T03:02:03.568Z,18.50
2018-07-21T03:04:31.372Z,18.50
2018-07-21T03:06:59.201Z,18.50
2018-07-21T03:09:26.955Z,18.50
2018-07-21T03:11:54.717Z,18.40
2018-07-21T03:14:22.530Z,18.40
2018-07-21T03:16:50.355Z,18.40
2018-07-21T03:19:18.147Z,18.50
2018-07-21T03:21:45.928Z,18.50
2018-07-21T03:24:13.724Z,18.60
2018-07-21T03:26:41.572Z,18.50
2018-07-21T03:29:09.466Z,18.40
2018-07-21T03:31:37.236Z,18.50
2018-07-21T03:34:05.149Z,18.40
2018-07-21T03:36:32.947Z,18.40
2018-07-21T03:39:00.777Z,18.50
2018-07-21T03:43:56.395Z,18.40
2018-07-21T03:46:24.235Z,18.40
2018-07-21T03:48:52.084Z,18.40
2018-07-21T03:51:19.874Z,18.80
2018-07-21T03:53:47.708Z,19.20
2018-07-21T03:56:15.529Z,19.20
2018-07-21T03:58:43.344Z,19.60
2018-07-21T04:01:11.191Z,19.50
2018-07-21T04:03:39.101Z,19.50
2018-07-21T04:06:06.959Z,19.70
2018-07-21T04:08:35.045Z,19.60
2018-07-21T04:11:03.105Z,19.50
2018-07-21T04:13:31.040Z,19.60
2018-07-21T04:15:58.915Z,19.70
2018-07-21T04:18:26.695Z,19.70
2018-07-21T04:20:54.527Z,19.70
2018-07-21T04:23:22.435Z,19.70
2018-07-21T04:25:50.135Z,19.70
2018-07-21T04:30:45.743Z,19.80
2018-07-21T04:33:13.614Z,19.80
2018-07-21T04:35:41.394Z,19.90
2018-07-21T04:38:09.129Z,20.00
2018-07-21T04:40:36.927Z,20.10
2018-07-21T04:43:04.963Z,20.10
2018-07-21T04:45:32.739Z,20.00
2018-07-21T04:48:00.779Z,20.10
2018-07-21T04:50:28.627Z,20.20
2018-07-21T04:52:56.503Z,20.30
2018-07-21T04:55:24.271Z,20.30
2018-07-21T04:57:52.063Z,20.40
2018-07-21T05:00:19.918Z,20.40
2018-07-21T05:02:47.736Z,20.50
2018-07-21T05:05:15.600Z,20.60
2018-07-21T05:07:43.369Z,20.70
2018-07-21T05:10:11.132Z,20.80
2018-07-21T05:12:38.940Z,20.90
2018-07-21T05:15:06.769Z,21.00
2018-07-21T05:17:34.579Z,21.10
2018-07-21T05:20:02.415Z,21.10
2018-07-21T05:22:30.216Z,21.20
2018-07-21T05:24:58.080Z,21.20
2018-07-21T05:27:25.815Z,21.20
2018-07-21T05:29:53.518Z,21.30
2018-07-21T05:32:21.319Z,21.30
2018-07-21T05:34:49.125Z,21.30
2018-07-21T05:37:16.908Z,21.30
2018-07-21T05:39:44.764Z,21.20
2018-07-21T05:42:12.527Z,21.00
2018-07-21T05:44:40.336Z,20.90
2018-07-21T05:47:08.208Z,21.00
2018-07-21T05:49:36.023Z,21.10
2018-07-21T05:52:03.872Z,21.10
2018-07-21T05:54:31.680Z,21.20
2018-07-21T05:56:59.538Z,21.20
2018-07-21T05:59:27.285Z,21.40
2018-07-21T06:01:55.113Z,21.30
2018-07-21T06:04:22.946Z,21.40
2018-07-21T06:06:50.711Z,21.50
2018-07-21T06:09:18.563Z,21.70
2018-07-21T06:11:46.313Z,21.90
2018-07-21T06:14:14.094Z,22.30
2018-07-21T06:16:41.919Z,22.60
2018-07-21T06:19:09.711Z,22.60
2018-07-21T06:21:37.579Z,22.70
2018-07-21T06:24:05.488Z,22.80
2018-07-21T06:26:33.307Z,23.30
2018-07-21T06:29:01.151Z,23.50
2018-07-21T06:31:28.976Z,23.60
2018-07-21T06:33:56.779Z,23.70
2018-07-21T06:36:24.652Z,23.80
2018-07-21T06:38:52.403Z,23.50
2018-07-21T06:41:20.183Z,23.80
2018-07-21T06:43:48.116Z,23.90
2018-07-21T06:46:15.927Z,24.20
2018-07-21T06:48:43.804Z,24.50
2018-07-21T06:51:11.519Z,24.00
2018-07-21T06:53:39.468Z,24.20
2018-07-21T06:56:07.283Z,24.00
2018-07-21T07:01:02.772Z,24.60
2018-07-21T07:03:30.576Z,24.60
2018-07-21T07:05:58.454Z,24.30
2018-07-21T07:08:26.273Z,24.10
2018-07-21T07:10:54.055Z,24.10
2018-07-21T07:13:21.864Z,24.10
2018-07-21T07:15:49.727Z,24.00
2018-07-21T07:18:17.532Z,24.20
2018-07-21T07:20:45.432Z,24.00
2018-07-21T07:23:13.307Z,23.90
2018-07-21T07:25:41.131Z,23.90
2018-07-21T07:28:08.885Z,23.90
2018-07-21T07:30:36.699Z,23.90
2018-07-21T07:33:04.435Z,24.00
2018-07-21T07:35:32.266Z,24.10
2018-07-21T07:38:00.012Z,24.30
2018-07-21T07:40:27.866Z,24.70
2018-07-21T07:42:55.576Z,24.60
2018-07-21T07:45:23.395Z,24.70
2018-07-21T07:47:51.307Z,24.90
2018-07-21T07:50:19.110Z,25.40
2018-07-21T07:52:46.899Z,25.60
2018-07-21T07:55:14.723Z,26.00
2018-07-21T07:57:42.470Z,26.00
2018-07-21T08:00:10.300Z,26.10
2018-07-21T08:02:38.124Z,26.30
2018-07-21T08:05:06.008Z,26.20
2018-07-21T08:07:33.747Z,26.10
2018-07-21T08:10:01.487Z,26.20
2018-07-21T08:12:29.213Z,26.10
2018-07-21T08:14:56.984Z,26.50
2018-07-21T08:17:24.872Z,26.50
2018-07-21T08:19:52.640Z,26.40
2018-07-21T08:22:20.475Z,26.60
2018-07-21T08:24:48.437Z,26.70
2018-07-21T08:27:16.171Z,26.90
2018-07-21T08:29:43.990Z,27.10
2018-07-21T08:32:11.879Z,27.20
2018-07-21T08:34:39.621Z,27.50
2018-07-21T08:37:07.412Z,28.00
2018-07-21T08:39:35.222Z,28.00
2018-07-21T08:42:07.045Z,28.20
2018-07-21T08:44:34.854Z,28.10
2018-07-21T08:49:30.528Z,28.60
2018-07-21T08:51:58.355Z,29.20
2018-07-21T08:54:26.144Z,29.80
2018-07-21T08:56:53.932Z,29.50
2018-07-21T08:59:21.723Z,29.50
2018-07-21T09:01:49.595Z,29.60
2018-07-21T09:04:17.406Z,29.10
2018-07-21T09:06:45.222Z,28.60
2018-07-21T09:09:13.080Z,29.30
2018-07-21T09:11:41.571Z,29.90
2018-07-21T09:14:09.371Z,29.60
2018-07-21T09:16:37.151Z,29.70
2018-07-21T09:19:05.155Z,29.20
2018-07-21T09:21:33.018Z,29.60
2018-07-21T09:24:00.715Z,29.50
2018-07-21T09:26:28.571Z,29.40
2018-07-21T09:28:56.402Z,29.40
2018-07-21T09:31:24.135Z,29.20
2018-07-21T09:33:51.935Z,28.90
2018-07-21T09:36:19.851Z,28.50
2018-07-21T09:38:47.744Z,28.80
2018-07-21T09:41:15.516Z,28.30
2018-07-21T09:43:43.399Z,28.00
2018-07-21T09:46:11.268Z,27.80
2018-07-21T09:48:39.103Z,27.60
2018-07-21T09:51:07.275Z,27.40
2018-07-21T09:53:35.079Z,27.00
2018-07-21T09:56:04.060Z,26.40
2018-07-21T09:58:31.799Z,26.40
2018-07-21T10:01:04.115Z,25.90
2018-07-21T10:03:33.206Z,26.10
2018-07-21T10:06:01.051Z,25.70
2018-07-21T10:08:29.172Z,25.50
2018-07-21T10:10:57.047Z,25.40
2018-07-21T10:13:25.545Z,24.80
2018-07-21T10:15:53.329Z,24.50
2018-07-21T10:18:21.131Z,23.80
2018-07-21T10:20:48.967Z,23.30
2018-07-21T10:23:17.155Z,23.10
2018-07-21T10:25:50.663Z,23.00
2018-07-21T10:28:24.509Z,22.80
2018-07-21T10:30:52.280Z,22.40
2018-07-21T10:33:20.262Z,22.20
2018-07-21T10:35:48.035Z,22.00
2018-07-21T10:38:15.787Z,22.00
2018-07-21T10:40:43.793Z,21.70
2018-07-21T10:43:11.617Z,21.40
2018-07-21T10:45:39.471Z,21.40
2018-07-21T10:48:07.712Z,21.30
2018-07-21T10:50:35.742Z,21.20
2018-07-21T10:53:03.583Z,21.20
2018-07-21T10:55:31.439Z,21.10
2018-07-21T10:57:59.404Z,21.10
2018-07-21T11:00:27.186Z,21.00
2018-07-21T11:02:55.071Z,21.00
2018-07-21T11:05:22.864Z,21.00
2018-07-21T11:07:51.047Z,20.90
2018-07-21T11:10:18.889Z,20.90
2018-07-21T11:12:46.704Z,20.80
2018-07-21T11:15:14.547Z,20.90
2018-07-21T11:17:42.357Z,21.00
2018-07-21T11:20:10.336Z,21.10
2018-07-21T11:22:38.143Z,21.20
2018-07-21T11:25:06.931Z,21.20
2018-07-21T11:27:34.839Z,21.20
2018-07-21T11:30:02.675Z,21.00
2018-07-21T11:32:30.651Z,21.00
2018-07-21T11:34:59.610Z,21.20
2018-07-21T11:37:27.475Z,21.20
2018-07-21T11:39:55.251Z,21.10
2018-07-21T11:42:23.418Z,21.10
2018-07-21T11:44:51.252Z,21.20
2018-07-21T11:47:19.055Z,21.10
2018-07-21T11:49:46.959Z,21.10
2018-07-21T11:52:14.724Z,20.90
2018-07-21T11:54:43.025Z,20.90
2018-07-21T11:57:10.916Z,21.00
2018-07-21T11:59:38.659Z,20.80
2018-07-21T12:02:06.492Z,20.70
2018-07-21T12:04:34.336Z,20.70
2018-07-21T12:07:02.101Z,20.60
2018-07-21T12:09:29.911Z,20.50
2018-07-21T12:11:57.890Z,20.40
2018-07-21T12:14:25.736Z,20.40
2018-07-21T12:16:53.502Z,20.40
2018-07-21T12:19:21.271Z,20.20
2018-07-21T12:21:49.091Z,20.30
2018-07-21T12:24:16.940Z,20.20
2018-07-21T12:26:44.770Z,20.10
2018-07-21T12:29:14.613Z,20.10
2018-07-21T12:31:42.484Z,20.10
2018-07-21T12:34:10.291Z,20.10
2018-07-21T12:36:38.530Z,20.10
2018-07-21T12:39:08.229Z,20.10
2018-07-21T12:41:36.211Z,20.30
2018-07-21T12:44:04.088Z,20.60
2018-07-21T12:46:31.914Z,20.80
2018-07-21T12:48:59.700Z,21.00
2018-07-21T12:51:27.548Z,21.10
2018-07-21T12:53:59.119Z,21.50
2018-07-21T12:56:26.955Z,21.70
2018-07-21T12:58:54.794Z,21.90
2018-07-21T13:01:22.623Z,22.20
2018-07-21T13:03:50.447Z,22.50
2018-07-21T13:06:18.311Z,22.80
2018-07-21T13:08:46.083Z,23.10
2018-07-21T13:11:13.890Z,22.90
2018-07-21T13:13:41.772Z,23.10
2018-07-21T13:16:09.565Z,23.50
2018-07-21T13:18:37.340Z,23.10
2018-07-21T13:21:05.221Z,23.50
2018-07-21T13:23:33.088Z,23.90
2018-07-21T13:26:00.903Z,23.90
2018-07-21T13:28:28.684Z,23.90
2018-07-21T13:30:58.664Z,23.90
2018-07-21T13:33:26.663Z,23.90
2018-07-21T13:35:54.539Z,24.10
2018-07-21T13:38:23.896Z,24.20
2018-07-21T13:40:54.291Z,24.70
2018-07-21T13:43:23.168Z,25.00
2018-07-21T13:45:51.027Z,25.20
2018-07-21T13:48:23.162Z,25.30
2018-07-21T13:50:56.259Z,25.30
2018-07-21T13:53:24.213Z,25.40
2018-07-21T13:55:52.044Z,25.60
2018-07-21T13:58:21.195Z,26.00
2018-07-21T14:00:49.122Z,25.50
2018-07-21T14:03:17.146Z,25.70
2018-07-21T14:05:49.558Z,25.90
2018-07-21T14:08:18.434Z,26.10
2018-07-21T14:10:46.934Z,25.90
2018-07-21T14:13:15.064Z,26.30
2018-07-21T14:15:47.744Z,26.00
2018-07-21T14:18:22.494Z,26.30
2018-07-21T14:20:51.327Z,26.00
2018-07-21T14:23:19.172Z,25.80
2018-07-21T14:25:47.092Z,25.80
2018-07-21T14:28:15.941Z,25.80
2018-07-21T14:30:48.356Z,26.40
2018-07-21T14:33:18.989Z,26.50
2018-07-21T14:35:46.875Z,26.70
2018-07-21T14:38:22.756Z,26.90
2018-07-21T14:40:55.568Z,27.20
2018-07-21T14:43:23.432Z,26.60
2018-07-21T14:45:55.145Z,26.70
2018-07-21T14:48:24.194Z,26.90
2018-07-21T14:50:53.734Z,26.60
2018-07-21T14:53:29.587Z,26.60
2018-07-21T14:55:59.508Z,27.10
2018-07-21T14:58:27.411Z,27.50
2018-07-21T15:00:55.187Z,27.40
2018-07-21T15:03:28.814Z,27.00
2018-07-21T15:05:57.003Z,27.30
2018-07-21T15:08:24.835Z,27.50
2018-07-21T15:10:58.630Z,27.40
2018-07-21T15:13:36.861Z,27.40
2018-07-21T15:16:05.228Z,27.10
2018-07-21T15:18:33.139Z,26.90
2018-07-21T15:23:28.740Z,27.00
2018-07-21T15:25:56.569Z,26.90
2018-07-21T15:28:24.407Z,26.90
2018-07-21T15:30:52.262Z,27.10
2018-07-21T15:33:20.111Z,27.30
2018-07-21T15:35:48.802Z,27.20
2018-07-21T15:38:16.847Z,26.90
2018-07-21T15:40:44.691Z,26.80
2018-07-21T15:43:12.479Z,26.20
2018-07-21T15:45:40.296Z,26.50
2018-07-21T15:48:08.152Z,26.30
2018-07-21T15:50:35.943Z,26.60
2018-07-21T15:53:03.820Z,26.00
2018-07-21T15:55:34.381Z,26.00
2018-07-21T15:58:02.544Z,26.20
2018-07-21T16:00:30.388Z,26.30
2018-07-21T16:02:58.231Z,25.60
2018-07-21T16:05:26.036Z,25.50
2018-07-21T16:07:54.276Z,25.40
2018-07-21T16:10:22.308Z,25.60
2018-07-21T16:12:50.076Z,25.60
2018-07-21T16:15:17.903Z,25.00
2018-07-21T16:17:45.670Z,25.20
2018-07-21T16:20:13.490Z,25.00
2018-07-21T16:22:41.275Z,24.90
2018-07-21T16:25:09.043Z,25.20
2018-07-21T16:27:36.851Z,24.90
2018-07-21T16:30:05.084Z,24.80
2018-07-21T16:32:32.912Z,24.90
2018-07-21T16:35:00.776Z,25.00
2018-07-21T16:37:28.659Z,24.90
2018-07-21T16:39:56.457Z,25.00
2018-07-21T16:42:24.327Z,24.90
2018-07-21T16:44:52.139Z,24.70
2018-07-21T16:47:19.908Z,24.60
2018-07-21T16:49:47.784Z,24.80
2018-07-21T16:52:15.697Z,24.40
2018-07-21T16:54:43.604Z,24.50
2018-07-21T16:57:11.394Z,24.50
2018-07-21T16:59:39.205Z,24.60
2018-07-21T17:02:07.080Z,24.20
2018-07-21T17:04:34.856Z,24.00
2018-07-21T17:07:02.617Z,24.00
2018-07-21T17:09:30.412Z,24.00
2018-07-21T17:11:58.195Z,23.70
2018-07-21T17:14:26.013Z,23.60
2018-07-21T17:16:53.780Z,23.70
2018-07-21T17:19:21.493Z,23.90
2018-07-21T17:21:49.326Z,23.70
2018-07-21T17:24:17.115Z,23.80
2018-07-21T17:26:44.888Z,23.90
2018-07-21T17:29:12.764Z,23.70
2018-07-21T17:31:40.605Z,23.60
2018-07-21T17:34:08.458Z,23.70
2018-07-21T17:36:36.246Z,23.40
2018-07-21T17:39:07.490Z,23.50
2018-07-21T17:41:36.378Z,23.50
2018-07-21T17:44:04.582Z,23.50
2018-07-21T17:46:32.457Z,23.40
2018-07-21T17:49:00.347Z,23.60
2018-07-21T17:51:28.219Z,23.60
2018-07-21T17:53:55.960Z,23.50
2018-07-21T17:56:23.807Z,23.50
2018-07-21T17:58:51.608Z,23.50
2018-07-21T18:01:19.504Z,23.80
2018-07-21T18:03:47.257Z,23.70
2018-07-21T18:06:15.108Z,23.70
2018-07-21T18:08:42.888Z,23.70
2018-07-21T18:11:10.723Z,23.50
2018-07-21T18:13:38.551Z,23.40
2018-07-21T18:16:07.814Z,23.40
2018-07-21T18:18:35.589Z,23.50
2018-07-21T18:21:03.471Z,23.40
2018-07-21T18:23:31.287Z,23.40
2018-07-21T18:25:59.144Z,23.40
2018-07-21T18:28:26.987Z,23.20
2018-07-21T18:30:54.766Z,23.10
2018-07-21T18:33:22.634Z,23.00
2018-07-21T18:35:50.494Z,22.90
2018-07-21T18:38:18.271Z,22.70
2018-07-21T18:40:46.068Z,22.90
2018-07-21T18:43:13.902Z,22.90
2018-07-21T18:45:41.731Z,22.90
2018-07-21T18:48:09.555Z,22.70
2018-07-21T18:50:37.364Z,22.60
2018-07-21T18:53:05.171Z,22.50
2018-07-21T18:55:33.004Z,22.50
2018-07-21T18:58:01.348Z,22.40
2018-07-21T19:00:29.153Z,22.40
2018-07-21T19:02:56.963Z,22.30
2018-07-21T19:05:24.827Z,22.20
2018-07-21T19:07:53.573Z,22.20
2018-07-21T19:10:21.703Z,22.20
2018-07-21T19:12:50.988Z,22.00
2018-07-21T19:15:24.692Z,22.00
2018-07-21T19:17:52.733Z,22.00
2018-07-21T19:20:26.300Z,22.00
2018-07-21T19:22:54.171Z,21.80
2018-07-21T19:25:28.105Z,21.80
2018-07-21T19:27:56.275Z,21.80
2018-07-21T19:30:27.366Z,21.80
2018-07-21T19:32:57.215Z,21.70
2018-07-21T19:35:25.308Z,21.70
2018-07-21T19:37:53.083Z,21.60
2018-07-21T19:40:20.847Z,21.60
2018-07-21T19:42:48.807Z,21.50
2018-07-21T19:45:16.571Z,21.40
2018-07-21T19:47:44.447Z,21.40
2018-07-21T19:50:12.284Z,21.40
2018-07-21T19:52:40.722Z,21.30
2018-07-21T19:55:08.923Z,21.20
2018-07-21T19:57:37.387Z,21.20
2018-07-21T20:00:05.953Z,21.10
2018-07-21T20:02:38.395Z,21.00
2018-07-21T20:05:07.469Z,21.00
2018-07-21T20:07:35.308Z,20.90
2018-07-21T20:10:05.200Z,20.90
2018-07-21T20:12:33.057Z,20.80
2018-07-21T20:15:00.780Z,20.80
2018-07-21T20:17:28.684Z,20.80
2018-07-21T20:19:56.456Z,20.70
2018-07-21T20:22:24.639Z,20.70
2018-07-21T20:24:58.022Z,20.60
2018-07-21T20:27:26.063Z,20.60
2018-07-21T20:29:54.322Z,20.50
2018-07-21T20:32:26.571Z,20.50
2018-07-21T20:34:56.221Z,20.40
2018-07-21T20:37:24.129Z,20.40
2018-07-21T20:39:51.959Z,20.30
2018-07-21T20:42:21.328Z,20.30
2018-07-21T20:44:49.145Z,20.20
2018-07-21T20:47:22.402Z,20.20
2018-07-21T20:49:50.143Z,20.10
2018-07-21T20:52:21.261Z,20.10
2018-07-21T20:54:53.143Z,20.10
2018-07-21T20:57:21.553Z,20.10
2018-07-21T20:59:49.845Z,20.10
2018-07-21T21:02:17.655Z,20.00
2018-07-21T21:04:45.547Z,20.00
2018-07-21T21:07:13.388Z,20.00
2018-07-21T21:09:47.733Z,20.00
2018-07-21T21:12:16.017Z,20.00
2018-07-21T21:17:12.210Z,20.00
2018-07-21T21:22:08.507Z,20.00
2018-07-21T21:24:36.395Z,20.00
2018-07-21T21:27:04.198Z,19.90
2018-07-21T21:29:32.063Z,19.90
2018-07-21T21:31:59.890Z,19.90
2018-07-21T21:34:27.805Z,19.90
2018-07-21T21:36:55.565Z,19.80
2018-07-21T21:39:27.937Z,19.80
2018-07-21T21:41:56.449Z,19.80
2018-07-21T21:44:24.400Z,19.80
2018-07-21T21:46:52.196Z,19.70
2018-07-21T21:49:19.931Z,19.80
2018-07-21T21:51:47.854Z,19.70
2018-07-21T21:54:15.683Z,19.70
2018-07-21T21:56:49.031Z,19.70
2018-07-21T21:59:16.944Z,19.70
2018-07-21T22:01:51.200Z,19.60
2018-07-21T22:04:19.072Z,19.60
2018-07-21T22:06:46.835Z,19.60
2018-07-21T22:09:14.660Z,19.60
2018-07-21T22:11:42.527Z,19.60
2018-07-21T22:14:10.368Z,19.60
2018-07-21T22:16:39.797Z,19.50
2018-07-21T22:19:07.733Z,19.50
2018-07-21T22:21:35.538Z,19.40
2018-07-21T22:24:03.372Z,19.40
2018-07-21T22:26:31.655Z,19.30
2018-07-21T22:29:04.719Z,19.30
2018-07-21T22:31:33.200Z,19.20
2018-07-21T22:34:00.960Z,19.20
2018-07-21T22:36:28.767Z,19.10
2018-07-21T22:38:56.639Z,19.10
2018-07-21T22:41:25.077Z,19.10
2018-07-21T22:43:52.836Z,19.00
2018-07-21T22:46:20.646Z,19.00
2018-07-21T22:48:48.512Z,19.00
2018-07-21T22:51:16.351Z,19.00
2018-07-21T22:53:44.144Z,18.90
2018-07-21T22:56:11.890Z,19.00
2018-07-21T22:58:39.778Z,18.90
2018-07-21T23:01:07.637Z,18.90
2018-07-21T23:03:35.442Z,18.90
2018-07-21T23:06:03.355Z,18.90
2018-07-21T23:10:58.967Z,18.90
2018-07-21T23:13:26.787Z,18.90
2018-07-21T23:15:54.588Z,18.90
2018-07-21T23:18:22.462Z,18.90
2018-07-21T23:20:50.336Z,18.90
2018-07-21T23:23:18.121Z,18.90
2018-07-21T23:25:45.920Z,18.90
2018-07-21T23:28:13.769Z,18.80
2018-07-21T23:30:41.539Z,18.80
2018-07-21T23:33:09.404Z,18.80
2018-07-21T23:35:37.202Z,18.80
2018-07-21T23:38:05.048Z,18.80
2018-07-21T23:40:32.827Z,18.90
2018-07-21T23:43:00.623Z,18.90
2018-07-21T23:45:28.443Z,18.90
2018-07-21T23:47:56.259Z,19.00
2018-07-21T23:50:24.131Z,18.90
2018-07-21T23:52:51.924Z,19.00
2018-07-21T23:55:19.791Z,19.00
2018-07-21T23:57:47.534Z,19.00
